sensor_id;sensor_type;location;lat;lon;timestamp;pressure;altitude;pressure_sealevel;temperature;humidity
53506;BME280;39388;50.936;6.848;2022-08-30T00:02:21;101309.88;;;20.30;52.11
53506;BME280;39388;50.936;6.848;2022-08-30T00:04:52;101309.31;;;20.22;52.30
53506;BME280;39388;50.936;6.848;2022-08-30T00:07:23;101316.25;;;20.23;52.33
53506;BME280;39388;50.936;6.848;2022-08-30T00:09:54;101305.94;;;20.18;52.46
53506;BME280;39388;50.936;6.848;2022-08-30T00:12:24;101307.88;;;20.13;52.62
53506;BME280;39388;50.936;6.848;2022-08-30T00:14:55;101313.03;;;20.14;52.74
53506;BME280;39388;50.936;6.848;2022-08-30T00:17:25;101312.28;;;20.11;52.90
53506;BME280;39388;50.936;6.848;2022-08-30T00:19:56;101302.19;;;20.00;53.04
53506;BME280;39388;50.936;6.848;2022-08-30T00:22:26;101308.13;;;20.05;53.06
53506;BME280;39388;50.936;6.848;2022-08-30T00:24:57;101312.34;;;20.09;53.12
53506;BME280;39388;50.936;6.848;2022-08-30T00:27:29;101309.78;;;20.08;53.17
53506;BME280;39388;50.936;6.848;2022-08-30T00:30:00;101314.25;;;20.06;53.38
53506;BME280;39388;50.936;6.848;2022-08-30T00:32:30;101309.13;;;20.01;53.51
53506;BME280;39388;50.936;6.848;2022-08-30T00:35:02;101312.72;;;19.98;53.57
53506;BME280;39388;50.936;6.848;2022-08-30T00:37:33;101318.88;;;19.97;53.69
53506;BME280;39388;50.936;6.848;2022-08-30T00:40:05;101313.88;;;19.91;53.95
53506;BME280;39388;50.936;6.848;2022-08-30T00:42:36;101323.44;;;19.92;53.85
53506;BME280;39388;50.936;6.848;2022-08-30T00:45:17;101313.09;;;19.87;53.76
53506;BME280;39388;50.936;6.848;2022-08-30T00:47:49;101323.69;;;19.84;53.82
53506;BME280;39388;50.936;6.848;2022-08-30T00:50:22;101316.88;;;19.79;54.15
53506;BME280;39388;50.936;6.848;2022-08-30T00:52:57;101304.91;;;19.71;54.38
53506;BME280;39388;50.936;6.848;2022-08-30T00:55:29;101314.56;;;19.71;54.57
53506;BME280;39388;50.936;6.848;2022-08-30T00:58:02;101307.72;;;19.65;54.79
53506;BME280;39388;50.936;6.848;2022-08-30T01:00:34;101308.59;;;19.66;54.81
53506;BME280;39388;50.936;6.848;2022-08-30T01:03:05;101320.72;;;19.68;54.94
53506;BME280;39388;50.936;6.848;2022-08-30T01:05:38;101328.63;;;19.67;54.97
53506;BME280;39388;50.936;6.848;2022-08-30T01:08:09;101323.50;;;19.64;55.05
53506;BME280;39388;50.936;6.848;2022-08-30T01:10:40;101324.41;;;19.63;55.20
53506;BME280;39388;50.936;6.848;2022-08-30T01:13:11;101330.38;;;19.66;55.14
53506;BME280;39388;50.936;6.848;2022-08-30T01:15:43;101331.25;;;19.67;55.14
53506;BME280;39388;50.936;6.848;2022-08-30T01:18:15;101334.66;;;19.69;55.19
53506;BME280;39388;50.936;6.848;2022-08-30T01:23:39;101331.94;;;19.72;55.32
53506;BME280;39388;50.936;6.848;2022-08-30T01:26:12;101329.31;;;19.72;55.30
53506;BME280;39388;50.936;6.848;2022-08-30T01:28:46;101327.63;;;19.71;55.26
53506;BME280;39388;50.936;6.848;2022-08-30T01:31:17;101325.84;;;19.71;55.80
53506;BME280;39388;50.936;6.848;2022-08-30T01:33:49;101312.84;;;19.70;55.55
53506;BME280;39388;50.936;6.848;2022-08-30T01:36:20;101323.34;;;19.68;55.43
53506;BME280;39388;50.936;6.848;2022-08-30T01:38:53;101312.22;;;19.62;55.73
53506;BME280;39388;50.936;6.848;2022-08-30T01:41:31;101321.59;;;19.69;55.69
53506;BME280;39388;50.936;6.848;2022-08-30T01:44:06;101327.56;;;19.72;55.66
53506;BME280;39388;50.936;6.848;2022-08-30T01:46:40;101333.69;;;19.71;55.65
53506;BME280;39388;50.936;6.848;2022-08-30T01:49:13;101335.34;;;19.74;55.87
53506;BME280;39388;50.936;6.848;2022-08-30T01:51:44;101338.88;;;19.73;55.70
53506;BME280;39388;50.936;6.848;2022-08-30T01:54:14;101336.16;;;19.76;55.86
53506;BME280;39388;50.936;6.848;2022-08-30T01:56:45;101332.69;;;19.76;55.93
53506;BME280;39388;50.936;6.848;2022-08-30T01:59:15;101316.38;;;19.67;55.93
53506;BME280;39388;50.936;6.848;2022-08-30T02:01:46;101330.09;;;19.76;56.20
53506;BME280;39388;50.936;6.848;2022-08-30T02:04:16;101325.03;;;19.69;55.94
53506;BME280;39388;50.936;6.848;2022-08-30T02:06:47;101336.47;;;19.67;55.94
53506;BME280;39388;50.936;6.848;2022-08-30T02:09:18;101342.53;;;19.67;56.20
53506;BME280;39388;50.936;6.848;2022-08-30T02:11:49;101339.34;;;19.59;56.36
53506;BME280;39388;50.936;6.848;2022-08-30T02:14:19;101337.63;;;19.58;56.48
53506;BME280;39388;50.936;6.848;2022-08-30T02:16:50;101339.44;;;19.56;56.55
53506;BME280;39388;50.936;6.848;2022-08-30T02:19:20;101312.78;;;19.45;56.51
53506;BME280;39388;50.936;6.848;2022-08-30T02:21:50;101323.91;;;19.51;56.36
53506;BME280;39388;50.936;6.848;2022-08-30T02:24:21;101325.53;;;19.54;56.70
53506;BME280;39388;50.936;6.848;2022-08-30T02:26:51;101327.31;;;19.53;56.73
53506;BME280;39388;50.936;6.848;2022-08-30T02:29:23;101330.84;;;19.52;56.82
53506;BME280;39388;50.936;6.848;2022-08-30T02:31:54;101319.66;;;19.47;56.91
53506;BME280;39388;50.936;6.848;2022-08-30T02:34:25;101331.03;;;19.46;56.94
53506;BME280;39388;50.936;6.848;2022-08-30T02:36:55;101322.38;;;19.44;57.07
53506;BME280;39388;50.936;6.848;2022-08-30T02:39:26;101324.97;;;19.46;57.09
53506;BME280;39388;50.936;6.848;2022-08-30T02:41:57;101324.16;;;19.44;57.25
53506;BME280;39388;50.936;6.848;2022-08-30T02:44:27;101326.69;;;19.45;57.41
53506;BME280;39388;50.936;6.848;2022-08-30T02:46:58;101325.94;;;19.41;57.02
53506;BME280;39388;50.936;6.848;2022-08-30T02:49:29;101314.69;;;19.39;57.39
53506;BME280;39388;50.936;6.848;2022-08-30T02:51:59;101301.78;;;19.33;57.55
53506;BME280;39388;50.936;6.848;2022-08-30T02:54:31;101306.97;;;19.35;57.32
53506;BME280;39388;50.936;6.848;2022-08-30T02:57:02;101298.41;;;19.30;57.39
53506;BME280;39388;50.936;6.848;2022-08-30T02:59:33;101306.44;;;19.23;57.65
53506;BME280;39388;50.936;6.848;2022-08-30T03:02:06;101293.78;;;19.11;57.71
53506;BME280;39388;50.936;6.848;2022-08-30T03:04:37;101306.59;;;19.19;57.81
53506;BME280;39388;50.936;6.848;2022-08-30T03:07:11;101302.31;;;19.16;57.90
53506;BME280;39388;50.936;6.848;2022-08-30T03:09:42;101311.09;;;19.14;58.07
53506;BME280;39388;50.936;6.848;2022-08-30T03:12:12;101300.75;;;19.10;57.96
53506;BME280;39388;50.936;6.848;2022-08-30T03:14:43;101302.66;;;19.05;58.41
53506;BME280;39388;50.936;6.848;2022-08-30T03:17:13;101306.03;;;19.09;58.30
53506;BME280;39388;50.936;6.848;2022-08-30T03:19:44;101308.66;;;19.07;58.41
53506;BME280;39388;50.936;6.848;2022-08-30T03:22:15;101307.09;;;19.02;58.48
53506;BME280;39388;50.936;6.848;2022-08-30T03:24:45;101308.06;;;18.99;58.41
53506;BME280;39388;50.936;6.848;2022-08-30T03:27:16;101307.25;;;18.97;58.52
53506;BME280;39388;50.936;6.848;2022-08-30T03:29:46;101313.34;;;18.98;58.54
53506;BME280;39388;50.936;6.848;2022-08-30T03:32:17;101310.69;;;18.99;58.65
53506;BME280;39388;50.936;6.848;2022-08-30T03:34:47;101310.69;;;18.99;58.68
53506;BME280;39388;50.936;6.848;2022-08-30T03:37:18;101296.88;;;18.94;58.78
53506;BME280;39388;50.936;6.848;2022-08-30T03:39:49;101302.94;;;18.96;59.10
53506;BME280;39388;50.936;6.848;2022-08-30T03:42:19;101303.81;;;18.96;58.96
53506;BME280;39388;50.936;6.848;2022-08-30T03:44:50;101303.81;;;18.96;58.90
53506;BME280;39388;50.936;6.848;2022-08-30T03:47:21;101299.41;;;18.97;59.07
53506;BME280;39388;50.936;6.848;2022-08-30T03:49:51;101307.06;;;19.03;58.96
53506;BME280;39388;50.936;6.848;2022-08-30T03:52:21;101300.97;;;19.03;59.21
53506;BME280;39388;50.936;6.848;2022-08-30T03:54:52;101301.13;;;18.98;59.06
53506;BME280;39388;50.936;6.848;2022-08-30T03:57:22;101303.81;;;18.96;59.09
53506;BME280;39388;50.936;6.848;2022-08-30T03:59:52;101303.94;;;18.92;59.31
53506;BME280;39388;50.936;6.848;2022-08-30T04:02:23;101305.69;;;18.91;59.20
53506;BME280;39388;50.936;6.848;2022-08-30T04:04:53;101299.72;;;18.86;59.39
53506;BME280;39388;50.936;6.848;2022-08-30T04:07:24;101308.50;;;18.85;59.38
53506;BME280;39388;50.936;6.848;2022-08-30T04:09:54;101312.94;;;18.81;59.49
53506;BME280;39388;50.936;6.848;2022-08-30T04:12:25;101307.13;;;18.72;59.67
53506;BME280;39388;50.936;6.848;2022-08-30T04:14:56;101309.75;;;18.72;59.79
53506;BME280;39388;50.936;6.848;2022-08-30T04:17:26;101308.09;;;18.69;60.09
53506;BME280;39388;50.936;6.848;2022-08-30T04:19:57;101295.22;;;18.63;60.10
53506;BME280;39388;50.936;6.848;2022-08-30T04:22:27;101310.84;;;18.64;59.86
53506;BME280;39388;50.936;6.848;2022-08-30T04:24:58;101308.31;;;18.61;60.08
53506;BME280;39388;50.936;6.848;2022-08-30T04:27:28;101312.72;;;18.59;60.43
53506;BME280;39388;50.936;6.848;2022-08-30T04:29:59;101312.69;;;18.61;60.58
53506;BME280;39388;50.936;6.848;2022-08-30T04:32:30;101310.06;;;18.61;60.51
53506;BME280;39388;50.936;6.848;2022-08-30T04:35:00;101307.50;;;18.59;60.81
53506;BME280;39388;50.936;6.848;2022-08-30T04:37:31;101312.69;;;18.61;60.62
53506;BME280;39388;50.936;6.848;2022-08-30T04:40:01;101323.94;;;18.63;60.93
53506;BME280;39388;50.936;6.848;2022-08-30T04:42:34;101323.13;;;18.61;61.05
53506;BME280;39388;50.936;6.848;2022-08-30T04:45:09;101318.88;;;18.57;60.89
53506;BME280;39388;50.936;6.848;2022-08-30T04:47:41;101331.81;;;18.61;60.97
53506;BME280;39388;50.936;6.848;2022-08-30T04:50:13;101334.34;;;18.64;60.96
53506;BME280;39388;50.936;6.848;2022-08-30T04:52:44;101328.34;;;18.61;60.63
53506;BME280;39388;50.936;6.848;2022-08-30T04:55:15;101336.88;;;18.68;60.78
53506;BME280;39388;50.936;6.848;2022-08-30T04:57:46;101334.25;;;18.68;60.77
53506;BME280;39388;50.936;6.848;2022-08-30T05:00:17;101336.81;;;18.69;60.92
53506;BME280;39388;50.936;6.848;2022-08-30T05:02:49;101334.06;;;18.74;60.96
53506;BME280;39388;50.936;6.848;2022-08-30T05:05:19;101337.47;;;18.77;61.23
53506;BME280;39388;50.936;6.848;2022-08-30T05:08:10;101339.97;;;18.80;61.22
53506;BME280;39388;50.936;6.848;2022-08-30T05:10:44;101327.91;;;18.76;61.11
53506;BME280;39388;50.936;6.848;2022-08-30T05:13:16;101338.22;;;18.81;61.00
53506;BME280;39388;50.936;6.848;2022-08-30T05:15:47;101344.34;;;18.80;61.15
53506;BME280;39388;50.936;6.848;2022-08-30T05:18:17;101336.50;;;18.80;61.12
53506;BME280;39388;50.936;6.848;2022-08-30T05:20:48;101339.03;;;18.83;61.20
53506;BME280;39388;50.936;6.848;2022-08-30T05:23:18;101345.91;;;18.86;61.26
53506;BME280;39388;50.936;6.848;2022-08-30T05:25:48;101342.41;;;18.87;61.20
53506;BME280;39388;50.936;6.848;2022-08-30T05:28:19;101349.38;;;18.86;61.17
53506;BME280;39388;50.936;6.848;2022-08-30T05:30:49;101346.88;;;18.83;61.37
53506;BME280;39388;50.936;6.848;2022-08-30T05:33:19;101354.66;;;18.85;61.30
53506;BME280;39388;50.936;6.848;2022-08-30T05:35:50;101343.38;;;18.83;61.37
53506;BME280;39388;50.936;6.848;2022-08-30T05:38:20;101347.69;;;18.85;61.42
53506;BME280;39388;50.936;6.848;2022-08-30T05:40:52;101349.38;;;18.86;61.82
53506;BME280;39388;50.936;6.848;2022-08-30T05:43:23;101357.09;;;18.91;61.50
53506;BME280;39388;50.936;6.848;2022-08-30T05:46:07;101355.28;;;18.93;61.38
53506;BME280;39388;50.936;6.848;2022-08-30T05:48:39;101361.22;;;18.98;61.29
53506;BME280;39388;50.936;6.848;2022-08-30T05:51:17;101348.13;;;19.00;61.45
53506;BME280;39388;50.936;6.848;2022-08-30T05:53:49;101351.97;;;19.16;61.35
53506;BME280;39388;50.936;6.848;2022-08-30T05:56:24;101354.25;;;19.27;61.18
53506;BME280;39388;50.936;6.848;2022-08-30T05:58:54;101359.13;;;19.39;60.82
53506;BME280;39388;50.936;6.848;2022-08-30T06:01:26;101364.94;;;19.49;60.84
53506;BME280;39388;50.936;6.848;2022-08-30T06:03:58;101365.69;;;19.53;60.76
53506;BME280;39388;50.936;6.848;2022-08-30T06:06:31;101361.22;;;19.56;60.51
53506;BME280;39388;50.936;6.848;2022-08-30T06:09:04;101368.94;;;19.61;60.33
53506;BME280;39388;50.936;6.848;2022-08-30T06:11:35;101360.22;;;19.61;60.19
53506;BME280;39388;50.936;6.848;2022-08-30T06:14:06;101351.56;;;19.59;60.37
53506;BME280;39388;50.936;6.848;2022-08-30T06:16:38;101336.75;;;19.57;60.17
53506;BME280;39388;50.936;6.848;2022-08-30T06:19:08;101353.09;;;19.64;60.07
53506;BME280;39388;50.936;6.848;2022-08-30T06:21:41;101351.38;;;19.65;60.13
53506;BME280;39388;50.936;6.848;2022-08-30T06:24:11;101344.56;;;19.59;60.31
53506;BME280;39388;50.936;6.848;2022-08-30T06:26:45;101356.66;;;19.63;60.18
53506;BME280;39388;50.936;6.848;2022-08-30T06:29:18;101350.47;;;19.66;60.31
53506;BME280;39388;50.936;6.848;2022-08-30T06:31:49;101345.16;;;19.67;60.32
53506;BME280;39388;50.936;6.848;2022-08-30T06:34:19;101344.91;;;19.75;60.20
53506;BME280;39388;50.936;6.848;2022-08-30T06:36:50;101351.69;;;19.81;59.91
53506;BME280;39388;50.936;6.848;2022-08-30T06:39:20;101354.03;;;19.90;60.09
53506;BME280;39388;50.936;6.848;2022-08-30T06:41:51;101352.00;;;19.98;59.95
53506;BME280;39388;50.936;6.848;2022-08-30T06:44:21;101349.75;;;20.13;59.92
53506;BME280;39388;50.936;6.848;2022-08-30T06:46:52;101359.38;;;20.38;59.57
53506;BME280;39388;50.936;6.848;2022-08-30T06:49:22;101359.16;;;20.69;58.91
53506;BME280;39388;50.936;6.848;2022-08-30T06:51:52;101367.34;;;20.84;58.00
53506;BME280;39388;50.936;6.848;2022-08-30T06:54:23;101358.63;;;20.83;57.84
53506;BME280;39388;50.936;6.848;2022-08-30T06:56:53;101374.16;;;20.88;57.86
53506;BME280;39388;50.936;6.848;2022-08-30T06:59:25;101372.16;;;20.94;57.88
53506;BME280;39388;50.936;6.848;2022-08-30T07:01:55;101357.00;;;21.03;57.59
53506;BME280;39388;50.936;6.848;2022-08-30T07:04:26;101349.66;;;21.13;57.04
53506;BME280;39388;50.936;6.848;2022-08-30T07:06:57;101361.53;;;21.21;56.95
53506;BME280;39388;50.936;6.848;2022-08-30T07:09:27;101355.25;;;21.25;56.84
53506;BME280;39388;50.936;6.848;2022-08-30T07:12:01;101354.38;;;21.27;56.39
53506;BME280;39388;50.936;6.848;2022-08-30T07:14:33;101359.41;;;21.31;56.42
53506;BME280;39388;50.936;6.848;2022-08-30T07:17:04;101366.25;;;21.35;56.45
53506;BME280;39388;50.936;6.848;2022-08-30T07:19:57;101363.75;;;21.32;56.39
53506;BME280;39388;50.936;6.848;2022-08-30T07:22:27;101354.13;;;21.33;56.14
53506;BME280;39388;50.936;6.848;2022-08-30T07:24:58;101354.78;;;21.38;55.96
53506;BME280;39388;50.936;6.848;2022-08-30T07:27:29;101360.56;;;21.68;55.12
53506;BME280;39388;50.936;6.848;2022-08-30T07:29:59;101359.44;;;22.57;53.44
53506;BME280;39388;50.936;6.848;2022-08-30T07:32:31;101363.03;;;23.67;50.79
53506;BME280;39388;50.936;6.848;2022-08-30T07:35:02;101359.66;;;24.52;48.87
53506;BME280;39388;50.936;6.848;2022-08-30T07:37:32;101362.78;;;25.24;47.41
53506;BME280;39388;50.936;6.848;2022-08-30T07:40:03;101362.84;;;25.85;45.71
53506;BME280;39388;50.936;6.848;2022-08-30T07:42:34;101370.66;;;26.32;44.93
53506;BME280;39388;50.936;6.848;2022-08-30T07:45:04;101365.19;;;26.49;44.25
53506;BME280;39388;50.936;6.848;2022-08-30T07:47:35;101366.78;;;26.52;44.39
53506;BME280;39388;50.936;6.848;2022-08-30T07:50:06;101366.03;;;26.21;44.97
53506;BME280;39388;50.936;6.848;2022-08-30T07:52:36;101369.59;;;25.75;45.54
53506;BME280;39388;50.936;6.848;2022-08-30T07:55:07;101373.06;;;25.45;45.87
53506;BME280;39388;50.936;6.848;2022-08-30T07:57:39;101377.34;;;25.15;46.32
53506;BME280;39388;50.936;6.848;2022-08-30T08:00:09;101373.31;;;25.08;46.31
53506;BME280;39388;50.936;6.848;2022-08-30T08:02:40;101364.75;;;25.67;44.82
53506;BME280;39388;50.936;6.848;2022-08-30T08:05:11;101367.81;;;26.20;44.02
53506;BME280;39388;50.936;6.848;2022-08-30T08:07:43;101361.50;;;26.52;42.87
53506;BME280;39388;50.936;6.848;2022-08-30T08:10:14;101370.56;;;26.77;42.52
53506;BME280;39388;50.936;6.848;2022-08-30T08:12:45;101364.22;;;26.79;42.78
53506;BME280;39388;50.936;6.848;2022-08-30T08:15:16;101371.06;;;27.11;41.96
53506;BME280;39388;50.936;6.848;2022-08-30T08:17:46;101367.53;;;27.52;41.40
53506;BME280;39388;50.936;6.848;2022-08-30T08:20:16;101372.50;;;27.97;40.57
53506;BME280;39388;50.936;6.848;2022-08-30T08:22:47;101369.63;;;28.39;39.42
53506;BME280;39388;50.936;6.848;2022-08-30T08:25:18;101377.66;;;28.76;38.43
53506;BME280;39388;50.936;6.848;2022-08-30T08:27:50;101367.75;;;28.91;37.58
53506;BME280;39388;50.936;6.848;2022-08-30T08:30:22;101371.94;;;29.07;37.83
53506;BME280;39388;50.936;6.848;2022-08-30T08:32:53;101367.56;;;29.43;36.90
53506;BME280;39388;50.936;6.848;2022-08-30T08:35:23;101369.00;;;29.71;36.80
53506;BME280;39388;50.936;6.848;2022-08-30T08:37:53;101356.72;;;29.93;35.93
53506;BME280;39388;50.936;6.848;2022-08-30T08:40:24;101358.53;;;30.04;35.63
53506;BME280;39388;50.936;6.848;2022-08-30T08:43:10;101366.44;;;30.17;34.77
53506;BME280;39388;50.936;6.848;2022-08-30T08:48:51;101356.63;;;30.17;34.59
53506;BME280;39388;50.936;6.848;2022-08-30T08:51:26;101362.22;;;30.37;34.45
53506;BME280;39388;50.936;6.848;2022-08-30T08:54:23;101357.97;;;30.57;33.50
53506;BME280;39388;50.936;6.848;2022-08-30T08:56:54;101354.22;;;30.48;33.36
53506;BME280;39388;50.936;6.848;2022-08-30T08:59:25;101348.44;;;30.55;33.19
53506;BME280;39388;50.936;6.848;2022-08-30T09:02:00;101340.41;;;30.66;32.53
53506;BME280;39388;50.936;6.848;2022-08-30T09:04:36;101343.81;;;30.68;32.28
53506;BME280;39388;50.936;6.848;2022-08-30T09:07:18;101344.91;;;30.65;32.38
53506;BME280;39388;50.936;6.848;2022-08-30T09:09:50;101349.50;;;30.41;33.31
53506;BME280;39388;50.936;6.848;2022-08-30T09:12:20;101346.44;;;29.88;32.88
53506;BME280;39388;50.936;6.848;2022-08-30T09:14:53;101343.38;;;29.46;33.34
53506;BME280;39388;50.936;6.848;2022-08-30T09:17:23;101349.59;;;29.22;33.38
53506;BME280;39388;50.936;6.848;2022-08-30T09:25:03;101350.13;;;28.90;33.72
53506;BME280;39388;50.936;6.848;2022-08-30T09:27:39;101343.66;;;28.81;34.11
53506;BME280;39388;50.936;6.848;2022-08-30T09:32:57;101334.13;;;28.92;33.98
53506;BME280;39388;50.936;6.848;2022-08-30T09:38:32;101324.69;;;28.75;33.83
53506;BME280;39388;50.936;6.848;2022-08-30T09:41:41;101337.31;;;28.71;34.09
53506;BME280;39388;50.936;6.848;2022-08-30T09:44:20;101333.28;;;28.78;33.79
53506;BME280;39388;50.936;6.848;2022-08-30T09:46:58;101330.09;;;28.86;33.53
53506;BME280;39388;50.936;6.848;2022-08-30T10:00:37;101317.69;;;29.11;32.96
53506;BME280;39388;50.936;6.848;2022-08-30T10:03:36;101319.31;;;29.01;32.93
53506;BME280;39388;50.936;6.848;2022-08-30T10:12:11;101311.53;;;28.73;33.14
53506;BME280;39388;50.936;6.848;2022-08-30T10:20:04;101318.16;;;28.54;32.91
53506;BME280;39388;50.936;6.848;2022-08-30T10:22:53;101314.75;;;28.52;32.38
53506;BME280;39388;50.936;6.848;2022-08-30T10:25:30;101309.38;;;28.54;32.87
53506;BME280;39388;50.936;6.848;2022-08-30T10:28:12;101312.44;;;28.48;32.78
53506;BME280;39388;50.936;6.848;2022-08-30T10:30:51;101306.94;;;28.38;32.60
53506;BME280;39388;50.936;6.848;2022-08-30T10:33:33;101302.63;;;28.24;32.81
53506;BME280;39388;50.936;6.848;2022-08-30T10:36:09;101303.88;;;28.18;32.83
53506;BME280;39388;50.936;6.848;2022-08-30T10:38:46;101305.63;;;28.19;32.77
53506;BME280;39388;50.936;6.848;2022-08-30T10:44:00;101302.91;;;28.45;32.53
53506;BME280;39388;50.936;6.848;2022-08-30T10:49:14;101290.72;;;28.67;32.09
53506;BME280;39388;50.936;6.848;2022-08-30T10:51:49;101301.31;;;28.80;32.21
53506;BME280;39388;50.936;6.848;2022-08-30T10:54:46;101298.00;;;28.89;31.62
53506;BME280;39388;50.936;6.848;2022-08-30T10:57:18;101292.44;;;29.05;31.93
53506;BME280;39388;50.936;6.848;2022-08-30T10:59:58;101280.00;;;29.06;31.48
53506;BME280;39388;50.936;6.848;2022-08-30T11:13:20;101282.38;;;29.80;30.64
53506;BME280;39388;50.936;6.848;2022-08-30T11:16:07;101288.81;;;29.89;30.29
53506;BME280;39388;50.936;6.848;2022-08-30T11:21:40;101283.94;;;29.83;30.19
53506;BME280;39388;50.936;6.848;2022-08-30T11:29:34;101281.66;;;29.67;30.42
53506;BME280;39388;50.936;6.848;2022-08-30T11:37:37;101289.50;;;29.33;30.78
53506;BME280;39388;50.936;6.848;2022-08-30T11:42:54;101274.66;;;29.30;30.82
53506;BME280;39388;50.936;6.848;2022-08-30T11:48:07;101265.50;;;29.34;30.63
53506;BME280;39388;50.936;6.848;2022-08-30T11:51:03;101266.16;;;29.25;30.78
53506;BME280;39388;50.936;6.848;2022-08-30T12:06:58;101247.75;;;29.46;30.38
53506;BME280;39388;50.936;6.848;2022-08-30T12:12:09;101255.91;;;29.67;30.16
53506;BME280;39388;50.936;6.848;2022-08-30T12:14:51;101245.63;;;29.63;30.59
53506;BME280;39388;50.936;6.848;2022-08-30T12:20:27;101231.72;;;29.48;29.93
53506;BME280;39388;50.936;6.848;2022-08-30T12:23:16;101250.41;;;29.46;30.00
53506;BME280;39388;50.936;6.848;2022-08-30T12:25:48;101240.44;;;29.50;30.04
53506;BME280;39388;50.936;6.848;2022-08-30T12:28:23;101246.50;;;29.74;29.84
53506;BME280;39388;50.936;6.848;2022-08-30T12:31:05;101236.00;;;29.96;29.85
53506;BME280;39388;50.936;6.848;2022-08-30T12:33:41;101235.84;;;30.09;29.57
53506;BME280;39388;50.936;6.848;2022-08-30T12:36:36;101232.13;;;30.00;29.79
53506;BME280;39388;50.936;6.848;2022-08-30T12:39:27;101234.69;;;29.79;30.02
53506;BME280;39388;50.936;6.848;2022-08-30T12:41:56;101238.16;;;29.56;30.14
53506;BME280;39388;50.936;6.848;2022-08-30T12:44:39;101231.19;;;29.31;30.31
53506;BME280;39388;50.936;6.848;2022-08-30T12:47:11;101227.19;;;29.14;30.72
53506;BME280;39388;50.936;6.848;2022-08-30T12:49:43;101222.00;;;29.24;30.84
53506;BME280;39388;50.936;6.848;2022-08-30T12:54:53;101221.34;;;29.56;30.87
53506;BME280;39388;50.936;6.848;2022-08-30T13:00:10;101222.81;;;29.60;30.79
53506;BME280;39388;50.936;6.848;2022-08-30T13:02:55;101214.63;;;29.74;30.39
53506;BME280;39388;50.936;6.848;2022-08-30T13:08:22;101215.91;;;30.03;30.36
53506;BME280;39388;50.936;6.848;2022-08-30T13:11:06;101213.88;;;30.06;29.78
53506;BME280;39388;50.936;6.848;2022-08-30T13:13:41;101209.63;;;30.04;30.46
53506;BME280;39388;50.936;6.848;2022-08-30T13:22:01;101198.03;;;30.28;31.69
53506;BME280;39388;50.936;6.848;2022-08-30T13:24:32;101199.22;;;30.35;31.33
53506;BME280;39388;50.936;6.848;2022-08-30T13:27:04;101195.81;;;30.44;30.43
53506;BME280;39388;50.936;6.848;2022-08-30T13:29:40;101193.38;;;30.52;30.16
53506;BME280;39388;50.936;6.848;2022-08-30T13:32:10;101178.69;;;30.58;29.71
53506;BME280;39388;50.936;6.848;2022-08-30T13:34:43;101177.25;;;30.65;29.81
53506;BME280;39388;50.936;6.848;2022-08-30T13:37:20;101182.16;;;30.70;30.12
53506;BME280;39388;50.936;6.848;2022-08-30T13:39:51;101180.88;;;30.64;30.80
53506;BME280;39388;50.936;6.848;2022-08-30T13:42:22;101165.06;;;30.51;31.49
53506;BME280;39388;50.936;6.848;2022-08-30T13:44:52;101178.63;;;30.48;31.63
53506;BME280;39388;50.936;6.848;2022-08-30T13:47:23;101181.28;;;30.48;31.23
53506;BME280;39388;50.936;6.848;2022-08-30T13:49:53;101169.66;;;30.49;30.86
53506;BME280;39388;50.936;6.848;2022-08-30T13:52:24;101163.84;;;30.56;30.85
53506;BME280;39388;50.936;6.848;2022-08-30T13:54:55;101174.19;;;30.70;30.54
53506;BME280;39388;50.936;6.848;2022-08-30T13:57:28;101162.56;;;30.71;30.90
53506;BME280;39388;50.936;6.848;2022-08-30T13:59:59;101165.22;;;30.71;30.93
53506;BME280;39388;50.936;6.848;2022-08-30T14:02:29;101164.38;;;30.71;31.04
53506;BME280;39388;50.936;6.848;2022-08-30T14:05:00;101162.09;;;30.66;31.07
53506;BME280;39388;50.936;6.848;2022-08-30T14:07:30;101159.25;;;30.58;31.10
53506;BME280;39388;50.936;6.848;2022-08-30T14:10:00;101158.78;;;30.52;31.47
53506;BME280;39388;50.936;6.848;2022-08-30T14:12:31;101162.91;;;30.45;31.60
53506;BME280;39388;50.936;6.848;2022-08-30T14:15:02;101154.56;;;30.39;31.47
53506;BME280;39388;50.936;6.848;2022-08-30T14:17:32;101158.81;;;30.41;31.86
53506;BME280;39388;50.936;6.848;2022-08-30T14:20:04;101156.16;;;30.41;31.70
53506;BME280;39388;50.936;6.848;2022-08-30T14:22:35;101153.94;;;30.46;31.95
53506;BME280;39388;50.936;6.848;2022-08-30T14:25:06;101149.34;;;30.48;31.86
53506;BME280;39388;50.936;6.848;2022-08-30T14:27:36;101153.69;;;30.49;31.86
53506;BME280;39388;50.936;6.848;2022-08-30T14:30:07;101140.69;;;30.35;31.92
53506;BME280;39388;50.936;6.848;2022-08-30T14:32:38;101141.56;;;30.24;31.99
53506;BME280;39388;50.936;6.848;2022-08-30T14:35:08;101135.66;;;30.20;31.93
53506;BME280;39388;50.936;6.848;2022-08-30T14:37:38;101138.91;;;30.24;32.40
53506;BME280;39388;50.936;6.848;2022-08-30T14:40:09;101140.09;;;30.31;32.15
53506;BME280;39388;50.936;6.848;2022-08-30T14:42:40;101130.06;;;30.35;32.43
53506;BME280;39388;50.936;6.848;2022-08-30T14:45:10;101143.81;;;30.40;32.35
53506;BME280;39388;50.936;6.848;2022-08-30T14:47:41;101145.03;;;30.36;31.99
53506;BME280;39388;50.936;6.848;2022-08-30T14:50:11;101142.25;;;30.38;32.19
53506;BME280;39388;50.936;6.848;2022-08-30T14:52:42;101142.25;;;30.38;32.02
53506;BME280;39388;50.936;6.848;2022-08-30T14:55:12;101143.69;;;30.42;31.85
53506;BME280;39388;50.936;6.848;2022-08-30T14:57:43;101131.25;;;30.42;32.27
53506;BME280;39388;50.936;6.848;2022-08-30T15:00:13;101129.03;;;30.47;32.37
53506;BME280;39388;50.936;6.848;2022-08-30T15:02:45;101123.47;;;30.50;32.20
53506;BME280;39388;50.936;6.848;2022-08-30T15:05:15;101128.91;;;30.49;32.15
53506;BME280;39388;50.936;6.848;2022-08-30T15:07:49;101124.09;;;30.43;32.16